PWSweather.com
Personal Weather Stations
Station Observations
KRMIDAS
Braemar, Lake Zurich, IL 60047

BraemarLake Zurich, IL 60047

Lat: 42.178, Lon: -88.102

Elevation: 837

Station Type: Davis Vantage Pro 2

http://tomkeramidas.com/cumulus/index.htm

Latest ConditionsUpdated 4:30:01 PM CST Sunday, Feb 1, 2015
Currently Today's Max Today's Min Today's Average
Temperature 21.4°F-5.9°C 30.0°F-1.1°C 21.4°F-5.9°C 27.3°F-2.6°C
Dew Point 19.9°F-6.7°C 28.9°F-1.7°C 19.7°F-6.8°C 25.9°F-3.4°C
Winds 12.0 mph NNE19.3 kmh NNE 14.0 mph N22.5 kmh N - 6.8 mph 10.9 kmh
Wind Gusts 25.0 mph40.2 kmh 31.0 mph49.9 kmh - -
Humidity 94% 96% 93% 95%
Pressure 29.83 in1010.2 mb 30.19 in1022.4 mb 29.83 in1010.2 mb -
Hour Temp Dew Point Humidity Winds Wind Gusts Pressure Precip Precip Rate Daily Precip Total
04:30 PM 21.4°F-5.9°C 19.9°F-6.7°C 94% 12.0 mph NNE19.3 kmh NNE 25.0 mph40.2 kmh 29.83 in1010.2 mb 0.00 in0.0 mm 0.00 in/hr0.0 mm/hr 0.00 in0.0 mm
04:15 PM 21.4°F-5.9°C 19.9°F-6.7°C 94% 9.0 mph NNE14.5 kmh NNE 26.0 mph41.8 kmh 29.83 in1010.2 mb 0.00 in0.0 mm 0.00 in/hr0.0 mm/hr 0.00 in0.0 mm
04:00 PM 21.5°F-5.8°C 20.0°F-6.7°C 94% 8.0 mph NNE12.9 kmh NNE 21.0 mph33.8 kmh 29.84 in1010.5 mb 0.00 in0.0 mm 0.00 in/hr0.0 mm/hr 0.00 in0.0 mm
03:45 PM 21.4°F-5.9°C 19.7°F-6.8°C 93% 12.0 mph N19.3 kmh N 31.0 mph49.9 kmh 29.85 in1010.8 mb 0.00 in0.0 mm 0.00 in/hr0.0 mm/hr 0.00 in0.0 mm
03:30 PM 21.6°F-5.8°C 19.9°F-6.7°C 93% 12.0 mph NNE19.3 kmh NNE 25.0 mph40.2 kmh 29.86 in1011.2 mb 0.00 in0.0 mm 0.00 in/hr0.0 mm/hr 0.00 in0.0 mm
03:15 PM 21.9°F-5.6°C 20.2°F-6.6°C 93% 14.0 mph N22.5 kmh N 29.0 mph46.7 kmh 29.85 in1010.8 mb 0.00 in0.0 mm 0.00 in/hr0.0 mm/hr 0.00 in0.0 mm
03:00 PM 22.4°F-5.3°C 20.7°F-6.3°C 93% 9.0 mph NNE14.5 kmh NNE 20.0 mph32.2 kmh 29.84 in1010.5 mb 0.00 in0.0 mm 0.00 in/hr0.0 mm/hr 0.00 in0.0 mm
02:45 PM 22.7°F-5.2°C 21.0°F-6.1°C 93% 10.0 mph NE16.1 kmh NE 23.0 mph37.0 kmh 29.84 in1010.5 mb 0.00 in0.0 mm 0.00 in/hr0.0 mm/hr 0.00 in0.0 mm
02:30 PM 22.8°F-5.1°C 21.1°F-6.1°C 93% 11.0 mph NNE17.7 kmh NNE 25.0 mph40.2 kmh 29.84 in1010.5 mb 0.00 in0.0 mm 0.00 in/hr0.0 mm/hr 0.00 in0.0 mm
02:15 PM 23.4°F-4.8°C 21.7°F-5.7°C 93% 11.0 mph NE17.7 kmh NE 23.0 mph37.0 kmh 29.86 in1011.2 mb 0.00 in0.0 mm 0.00 in/hr0.0 mm/hr 0.00 in0.0 mm
02:00 PM 23.8°F-4.6°C 22.1°F-5.5°C 93% 10.0 mph NNE16.1 kmh NNE 26.0 mph41.8 kmh 29.86 in1011.2 mb 0.00 in0.0 mm 0.00 in/hr0.0 mm/hr 0.00 in0.0 mm
01:45 PM 24.2°F-4.3°C 22.5°F-5.3°C 93% 9.0 mph NNE14.5 kmh NNE 26.0 mph41.8 kmh 29.86 in1011.2 mb 0.00 in0.0 mm 0.00 in/hr0.0 mm/hr 0.00 in0.0 mm
01:30 PM 24.5°F-4.2°C 22.8°F-5.1°C 93% 11.0 mph NE17.7 kmh NE 29.0 mph46.7 kmh 29.86 in1011.2 mb 0.00 in0.0 mm 0.00 in/hr0.0 mm/hr 0.00 in0.0 mm
01:15 PM 24.8°F-4.0°C 23.1°F-4.9°C 93% 10.0 mph NE16.1 kmh NE 30.0 mph48.3 kmh 29.85 in1010.8 mb 0.00 in0.0 mm 0.00 in/hr0.0 mm/hr 0.00 in0.0 mm
01:00 PM 25.2°F-3.8°C 23.5°F-4.7°C 93% 10.0 mph NNE16.1 kmh NNE 24.0 mph38.6 kmh 29.85 in1010.8 mb 0.00 in0.0 mm 0.00 in/hr0.0 mm/hr 0.00 in0.0 mm
12:45 PM 25.3°F-3.7°C 23.8°F-4.6°C 94% 11.0 mph NE17.7 kmh NE 22.0 mph35.4 kmh 29.85 in1010.8 mb 0.00 in0.0 mm 0.00 in/hr0.0 mm/hr 0.00 in0.0 mm
12:30 PM 25.5°F-3.6°C 24.0°F-4.4°C 94% 10.0 mph NE16.1 kmh NE 26.0 mph41.8 kmh 29.87 in1011.5 mb 0.00 in0.0 mm 0.00 in/hr0.0 mm/hr 0.00 in0.0 mm
12:15 PM 25.6°F-3.6°C 24.1°F-4.4°C 94% 9.0 mph NE14.5 kmh NE 21.0 mph33.8 kmh 29.88 in1011.9 mb 0.00 in0.0 mm 0.00 in/hr0.0 mm/hr 0.00 in0.0 mm
12:00 PM 25.7°F-3.5°C 24.0°F-4.4°C 93% 9.0 mph NE14.5 kmh NE 27.0 mph43.5 kmh 29.90 in1012.5 mb 0.00 in0.0 mm 0.00 in/hr0.0 mm/hr 0.00 in0.0 mm
11:45 AM 25.9°F-3.4°C 24.4°F-4.2°C 94% 8.0 mph NNE12.9 kmh NNE 17.0 mph27.4 kmh 29.90 in1012.5 mb 0.00 in0.0 mm 0.00 in/hr0.0 mm/hr 0.00 in0.0 mm
11:30 AM 26.2°F-3.2°C 24.7°F-4.1°C 94% 8.0 mph NNE12.9 kmh NNE 22.0 mph35.4 kmh 29.91 in1012.9 mb 0.00 in0.0 mm 0.00 in/hr0.0 mm/hr 0.00 in0.0 mm
11:15 AM 26.3°F-3.2°C 24.8°F-4.0°C 94% 7.0 mph NE11.3 kmh NE 20.0 mph32.2 kmh 29.92 in1013.2 mb 0.00 in0.0 mm 0.00 in/hr0.0 mm/hr 0.00 in0.0 mm
11:00 AM 26.6°F-3.0°C 25.1°F-3.8°C 94% 9.0 mph NE14.5 kmh NE 18.0 mph29.0 kmh 29.93 in1013.5 mb 0.00 in0.0 mm 0.00 in/hr0.0 mm/hr 0.00 in0.0 mm
10:45 AM 26.8°F-2.9°C 25.3°F-3.7°C 94% 10.0 mph NE16.1 kmh NE 25.0 mph40.2 kmh 29.94 in1013.9 mb 0.00 in0.0 mm 0.00 in/hr0.0 mm/hr 0.00 in0.0 mm
10:30 AM 26.9°F-2.8°C 25.4°F-3.7°C 94% 10.0 mph NE16.1 kmh NE 21.0 mph33.8 kmh 29.94 in1013.9 mb 0.00 in0.0 mm 0.00 in/hr0.0 mm/hr 0.00 in0.0 mm
10:15 AM 27.0°F-2.8°C 25.8°F-3.4°C 95% 9.0 mph NE14.5 kmh NE 19.0 mph30.6 kmh 29.95 in1014.2 mb 0.00 in0.0 mm 0.00 in/hr0.0 mm/hr 0.00 in0.0 mm
10:00 AM 27.1°F-2.7°C 25.9°F-3.4°C 95% 8.0 mph NE12.9 kmh NE 25.0 mph40.2 kmh 29.96 in1014.6 mb 0.00 in0.0 mm 0.00 in/hr0.0 mm/hr 0.00 in0.0 mm
09:45 AM 27.2°F-2.7°C 26.0°F-3.3°C 95% 7.0 mph NE11.3 kmh NE 19.0 mph30.6 kmh 29.97 in1014.9 mb 0.00 in0.0 mm 0.00 in/hr0.0 mm/hr 0.00 in0.0 mm
09:30 AM 27.2°F-2.7°C 26.0°F-3.3°C 95% 8.0 mph NE12.9 kmh NE 18.0 mph29.0 kmh 29.98 in1015.2 mb 0.00 in0.0 mm 0.00 in/hr0.0 mm/hr 0.00 in0.0 mm
09:15 AM 27.4°F-2.6°C 26.2°F-3.2°C 95% 7.0 mph NE11.3 kmh NE 16.0 mph25.7 kmh 29.98 in1015.2 mb 0.00 in0.0 mm 0.00 in/hr0.0 mm/hr 0.00 in0.0 mm
09:00 AM 27.8°F-2.3°C 26.6°F-3.0°C 95% 8.0 mph NE12.9 kmh NE 15.0 mph24.1 kmh 29.98 in1015.2 mb 0.00 in0.0 mm 0.00 in/hr0.0 mm/hr 0.00 in0.0 mm
08:45 AM 27.8°F-2.3°C 26.6°F-3.0°C 95% 7.0 mph NE11.3 kmh NE 14.0 mph22.5 kmh 29.99 in1015.6 mb 0.00 in0.0 mm 0.00 in/hr0.0 mm/hr 0.00 in0.0 mm
08:30 AM 27.9°F-2.3°C 26.7°F-2.9°C 95% 8.0 mph NE12.9 kmh NE 19.0 mph30.6 kmh 29.99 in1015.6 mb 0.00 in0.0 mm 0.00 in/hr0.0 mm/hr 0.00 in0.0 mm
08:15 AM 28.0°F-2.2°C 26.8°F-2.9°C 95% 7.0 mph NE11.3 kmh NE 20.0 mph32.2 kmh 30.00 in1015.9 mb 0.00 in0.0 mm 0.00 in/hr0.0 mm/hr 0.00 in0.0 mm
08:00 AM 28.0°F-2.2°C 26.8°F-2.9°C 95% 7.0 mph NE11.3 kmh NE 19.0 mph30.6 kmh 30.00 in1015.9 mb 0.00 in0.0 mm 0.00 in/hr0.0 mm/hr 0.00 in0.0 mm
07:45 AM 28.0°F-2.2°C 26.8°F-2.9°C 95% 7.0 mph NE11.3 kmh NE 20.0 mph32.2 kmh 30.01 in1016.3 mb 0.00 in0.0 mm 0.00 in/hr0.0 mm/hr 0.00 in0.0 mm
07:30 AM 28.3°F-2.1°C 27.1°F-2.7°C 95% 7.0 mph NE11.3 kmh NE 16.0 mph25.7 kmh 30.00 in1015.9 mb 0.00 in0.0 mm 0.00 in/hr0.0 mm/hr 0.00 in0.0 mm
07:15 AM 28.6°F-1.9°C 27.6°F-2.4°C 96% 9.0 mph NE14.5 kmh NE 19.0 mph30.6 kmh 30.01 in1016.3 mb 0.00 in0.0 mm 0.00 in/hr0.0 mm/hr 0.00 in0.0 mm
07:00 AM 28.9°F-1.7°C 27.9°F-2.3°C 96% 7.0 mph NE11.3 kmh NE 15.0 mph24.1 kmh 30.01 in1016.3 mb 0.00 in0.0 mm 0.00 in/hr0.0 mm/hr 0.00 in0.0 mm
06:45 AM 29.1°F-1.6°C 28.1°F-2.2°C 96% 7.0 mph NE11.3 kmh NE 15.0 mph24.1 kmh 30.02 in1016.6 mb 0.00 in0.0 mm 0.00 in/hr0.0 mm/hr 0.00 in0.0 mm
06:30 AM 29.4°F-1.4°C 28.4°F-2.0°C 96% 7.0 mph NE11.3 kmh NE 17.0 mph27.4 kmh 30.03 in1016.9 mb 0.00 in0.0 mm 0.00 in/hr0.0 mm/hr 0.00 in0.0 mm
06:15 AM 29.5°F-1.4°C 28.5°F-1.9°C 96% 5.0 mph NE8.0 kmh NE 14.0 mph22.5 kmh 30.04 in1017.3 mb 0.00 in0.0 mm 0.00 in/hr0.0 mm/hr 0.00 in0.0 mm
06:00 AM 29.5°F-1.4°C 28.5°F-1.9°C 96% 5.0 mph ENE8.0 kmh ENE 13.0 mph20.9 kmh 30.05 in1017.6 mb 0.00 in0.0 mm 0.00 in/hr0.0 mm/hr 0.00 in0.0 mm
05:45 AM 29.6°F-1.3°C 28.6°F-1.9°C 96% 5.0 mph NE8.0 kmh NE 12.0 mph19.3 kmh 30.05 in1017.6 mb 0.00 in0.0 mm 0.00 in/hr0.0 mm/hr 0.00 in0.0 mm
05:30 AM 29.6°F-1.3°C 28.6°F-1.9°C 96% 5.0 mph ENE8.0 kmh ENE 12.0 mph19.3 kmh 30.05 in1017.6 mb 0.00 in0.0 mm 0.00 in/hr0.0 mm/hr 0.00 in0.0 mm
05:15 AM 29.6°F-1.3°C 28.6°F-1.9°C 96% 4.0 mph NE6.4 kmh NE 11.0 mph17.7 kmh 30.06 in1017.9 mb 0.00 in0.0 mm 0.00 in/hr0.0 mm/hr 0.00 in0.0 mm
05:00 AM 29.6°F-1.3°C 28.6°F-1.9°C 96% 5.0 mph NE8.0 kmh NE 13.0 mph20.9 kmh 30.07 in1018.3 mb 0.00 in0.0 mm 0.00 in/hr0.0 mm/hr 0.00 in0.0 mm
04:45 AM 29.8°F-1.2°C 28.8°F-1.8°C 96% 5.0 mph NE8.0 kmh NE 10.0 mph16.1 kmh 30.08 in1018.6 mb 0.00 in0.0 mm 0.00 in/hr0.0 mm/hr 0.00 in0.0 mm
04:30 AM 29.7°F-1.3°C 28.7°F-1.8°C 96% 4.0 mph ENE6.4 kmh ENE 10.0 mph16.1 kmh 30.08 in1018.6 mb 0.00 in0.0 mm 0.00 in/hr0.0 mm/hr 0.00 in0.0 mm
04:15 AM 29.8°F-1.2°C 28.8°F-1.8°C 96% 4.0 mph NE6.4 kmh NE 10.0 mph16.1 kmh 30.09 in1019.0 mb 0.00 in0.0 mm 0.00 in/hr0.0 mm/hr 0.00 in0.0 mm
04:00 AM 29.9°F-1.2°C 28.9°F-1.7°C 96% 5.0 mph NE8.0 kmh NE 12.0 mph19.3 kmh 30.09 in1019.0 mb 0.00 in0.0 mm 0.00 in/hr0.0 mm/hr 0.00 in0.0 mm
03:45 AM 29.9°F-1.2°C 28.9°F-1.7°C 96% 4.0 mph NE6.4 kmh NE 11.0 mph17.7 kmh 30.10 in1019.3 mb 0.00 in0.0 mm 0.00 in/hr0.0 mm/hr 0.00 in0.0 mm
03:30 AM 29.9°F-1.2°C 28.9°F-1.7°C 96% 3.0 mph NE4.8 kmh NE 7.0 mph11.3 kmh 30.11 in1019.6 mb 0.00 in0.0 mm 0.00 in/hr0.0 mm/hr 0.00 in0.0 mm
03:15 AM 29.9°F-1.2°C 28.9°F-1.7°C 96% 3.0 mph ENE4.8 kmh ENE 8.0 mph12.9 kmh 30.11 in1019.6 mb 0.00 in0.0 mm 0.00 in/hr0.0 mm/hr 0.00 in0.0 mm
03:00 AM 29.9°F-1.2°C 28.9°F-1.7°C 96% 3.0 mph NE4.8 kmh NE 9.0 mph14.5 kmh 30.12 in1020.0 mb 0.00 in0.0 mm 0.00 in/hr0.0 mm/hr 0.00 in0.0 mm
02:45 AM 29.9°F-1.2°C 28.9°F-1.7°C 96% 4.0 mph ENE6.4 kmh ENE 10.0 mph16.1 kmh 30.12 in1020.0 mb 0.00 in0.0 mm 0.00 in/hr0.0 mm/hr 0.00 in0.0 mm
02:30 AM 29.9°F-1.2°C 28.6°F-1.9°C 95% 2.0 mph ENE3.2 kmh ENE 7.0 mph11.3 kmh 30.13 in1020.3 mb 0.00 in0.0 mm 0.00 in/hr0.0 mm/hr 0.00 in0.0 mm
02:15 AM 29.9°F-1.2°C 28.6°F-1.9°C 95% 3.0 mph ENE4.8 kmh ENE 9.0 mph14.5 kmh 30.14 in1020.7 mb 0.00 in0.0 mm 0.00 in/hr0.0 mm/hr 0.00 in0.0 mm
02:00 AM 30.0°F-1.1°C 28.7°F-1.8°C 95% 3.0 mph NE4.8 kmh NE 7.0 mph11.3 kmh 30.15 in1021.0 mb 0.00 in0.0 mm 0.00 in/hr0.0 mm/hr 0.00 in0.0 mm
01:45 AM 30.0°F-1.1°C 28.7°F-1.8°C 95% 2.0 mph E3.2 kmh E 5.0 mph8.0 kmh 30.15 in1021.0 mb 0.00 in0.0 mm 0.00 in/hr0.0 mm/hr 0.00 in0.0 mm
01:30 AM 29.9°F-1.2°C 28.6°F-1.9°C 95% 1.0 mph E1.6 kmh E 5.0 mph8.0 kmh 30.15 in1021.0 mb 0.00 in0.0 mm 0.00 in/hr0.0 mm/hr 0.00 in0.0 mm
01:15 AM 29.9°F-1.2°C 28.6°F-1.9°C 95% 1.0 mph NE1.6 kmh NE 5.0 mph8.0 kmh 30.16 in1021.3 mb 0.00 in0.0 mm 0.00 in/hr0.0 mm/hr 0.00 in0.0 mm
01:00 AM 29.9°F-1.2°C 28.6°F-1.9°C 95% 1.0 mph NE1.6 kmh NE 6.0 mph9.7 kmh 30.16 in1021.3 mb 0.00 in0.0 mm 0.00 in/hr0.0 mm/hr 0.00 in0.0 mm
12:45 AM 29.9°F-1.2°C 28.6°F-1.9°C 95% 3.0 mph ENE4.8 kmh ENE 7.0 mph11.3 kmh 30.17 in1021.7 mb 0.00 in0.0 mm 0.00 in/hr0.0 mm/hr 0.00 in0.0 mm
12:30 AM 29.8°F-1.2°C 28.5°F-1.9°C 95% 2.0 mph ENE3.2 kmh ENE 6.0 mph9.7 kmh 30.17 in1021.7 mb 0.00 in0.0 mm 0.00 in/hr0.0 mm/hr 0.00 in0.0 mm
12:15 AM 29.8°F-1.2°C 28.5°F-1.9°C 95% 1.0 mph NE1.6 kmh NE 5.0 mph8.0 kmh 30.18 in1022.0 mb 0.00 in0.0 mm 0.00 in/hr0.0 mm/hr 0.00 in0.0 mm
12:00 AM 29.8°F-1.2°C 28.5°F-1.9°C 95% 1.0 mph E1.6 kmh E 5.0 mph8.0 kmh 30.19 in1022.4 mb 0.00 in0.0 mm 0.00 in/hr0.0 mm/hr 0.00 in0.0 mm